Thunder radar more information blitzortung!


Radar de pluja more information rain snow radar


Visita la nostra xarxa de llocs de meteo:

Template documentation
and downloads

And another site



No particular awareness of the weather is required.    There are no Weather-warnings

Pagina Historial Weather Underground text

Diari Resum Octubre 16, 2017 Unitats:  Mètric    Imperial   Tant
« Previous Dia
SegĂźent Dia »
Diari Setmana Mensual Anual Personalitzada
  Maxima: Minima: Media:
Temperatura: -17.8 °C -9.7 °C -7.3 °C
Punt de rosada: -17.8 °C -11 °C -9.9 °C
Humitat: Humidity % 55 % 75 %
Wind Speed: 0 km/h 0 km/h 4.8 km/h
RĂ fegues de vent: 0 km/h - -
Vent:- - SSE
Pression baro: 0 hPa 34669.3 hPa -
Precipitacions: 0 mm    
Historical Graphs
 
 
Dades de taula per Octubre 16, 2017
Temps Temperatura Punt de rosada Pression baro Vent Wind Speed RĂ fegues de vent Humitat Rainfall Rate (Hourly)
-17.8 °C -17.8 °C 0 hPa Calm     Humidity % 0 mm
00:00 -7.7 °C -9.4 °C 34774.2 hPa Calm     82 % 0 mm
00:05 -7.8 °C -9.5 °C 34774.2 hPa Calm     82 % 0 mm
00:10 -7.8 °C -9.5 °C 34774.2 hPa Calm     82 % 0 mm
00:15 -7.8 °C -9.5 °C 34774.2 hPa Calm     83 % 0 mm
00:20 -7.8 °C -9.5 °C 34774.2 hPa Calm     83 % 0 mm
00:25 -7.9 °C -9.5 °C 34774.2 hPa Calm     83 % 0 mm
00:30 -7.9 °C -9.5 °C 34774.2 hPa Calm     83 % 0 mm
00:35 -7.9 °C -9.5 °C 34774.2 hPa Calm     83 % 0 mm
00:40 -7.9 °C -9.6 °C 34774.2 hPa Calm     83 % 0 mm
00:45 -7.9 °C -9.5 °C 34774.2 hPa Calm     84 % 0 mm
00:50 -8 °C -9.5 °C 34774.2 hPa Calm     84 % 0 mm
00:55 -8 °C -9.5 °C 34774.2 hPa ENE 6 km/h 6 km/h 84 % 0 mm
01:00 -8 °C -9.5 °C 34774.2 hPa Calm     84 % 0 mm
01:05 -8.1 °C -9.6 °C 34774.2 hPa SW 6 km/h 6 km/h 84 % 0 mm
01:10 -8.1 °C -9.6 °C 34774.2 hPa SW 6 km/h 6 km/h 84 % 0 mm
01:15 -8.2 °C -9.7 °C 34774.2 hPa SW 3.1 km/h 3.7 km/h 84 % 0 mm
01:20 -8.2 °C -9.7 °C 34774.2 hPa Calm     84 % 0 mm
01:25 -8.2 °C -9.6 °C 34774.2 hPa Calm     85 % 0 mm
01:30 -8.2 °C -9.6 °C 34774.2 hPa Calm     85 % 0 mm
01:35 -8.2 °C -9.6 °C 34774.2 hPa SW 6 km/h 6 km/h 85 % 0 mm
01:40 -8.2 °C -9.6 °C 34774.2 hPa SW 3.1 km/h 3.1 km/h 85 % 0 mm
01:45 -8.2 °C -9.5 °C 34774.2 hPa Calm     86 % 0 mm
01:50 -8.2 °C -9.5 °C 34774.2 hPa Calm     86 % 0 mm
01:55 -8.2 °C -9.6 °C 34774.2 hPa Calm     86 % 0 mm
02:00 -8.2 °C -9.6 °C 34774.2 hPa Calm     86 % 0 mm
02:05 -8.2 °C -9.6 °C 34774.2 hPa WNW 3.1 km/h 3.1 km/h 86 % 0 mm
02:10 -8.3 °C -9.6 °C 34774.2 hPa NE 6 km/h 6 km/h 86 % 0 mm
02:15 -8.3 °C -9.6 °C 34774.2 hPa NE 6 km/h 6 km/h 86 % 0 mm
02:20 -8.3 °C -9.6 °C 34774.2 hPa NNE 3.1 km/h   86 % 0 mm
02:25 -8.3 °C -9.6 °C 34774.2 hPa NE 6 km/h 6 km/h 86 % 0 mm
02:30 -8.4 °C -9.6 °C 34740.4 hPa NNE 3.1 km/h 3.1 km/h 87 % 0 mm
02:35 -8.4 °C -9.7 °C 34740.4 hPa Calm     87 % 0 mm
02:40 -8.5 °C -9.8 °C 34740.4 hPa Calm     86 % 0 mm
02:45 -8.6 °C -9.9 °C 34774.2 hPa WNW 6 km/h 6 km/h 86 % 0 mm
02:50 -8.6 °C -9.8 °C 34774.2 hPa Calm     87 % 0 mm
02:55 -8.6 °C -9.8 °C 34774.2 hPa Calm     87 % 0 mm
03:00 -8.6 °C -9.8 °C 34740.4 hPa Calm     87 % 0 mm
03:05 -8.7 °C -9.9 °C 34740.4 hPa Calm     87 % 0 mm
03:10 -8.7 °C -9.9 °C 34740.4 hPa Calm     87 % 0 mm
03:15 -8.7 °C -9.8 °C 34740.4 hPa Calm     88 % 0 mm
03:20 -8.7 °C -9.8 °C 34740.4 hPa Calm     88 % 0 mm
03:25 -8.7 °C -9.8 °C 34740.4 hPa Calm     88 % 0 mm
03:30 -8.8 °C -9.9 °C 34740.4 hPa Calm     88 % 0 mm
03:35 -8.8 °C -9.9 °C 34740.4 hPa Calm     88 % 0 mm
03:40 -8.8 °C -9.9 °C 34740.4 hPa Calm     88 % 0 mm
03:45 -8.8 °C -9.9 °C 34740.4 hPa Calm     88 % 0 mm
03:50 -8.8 °C -9.9 °C 34740.4 hPa Calm     88 % 0 mm
03:55 -8.9 °C -10 °C 34740.4 hPa Calm     88 % 0 mm
04:00 -8.9 °C -10.1 °C 34740.4 hPa Calm     88 % 0 mm
04:05 -8.9 °C -9.9 °C 34740.4 hPa Calm     89 % 0 mm
04:10 -8.9 °C -9.9 °C 34740.4 hPa Calm     89 % 0 mm
04:15 -9 °C -10 °C 34703.1 hPa Calm     89 % 0 mm
04:20 -9 °C -10 °C 34703.1 hPa Calm     89 % 0 mm
04:25 -9 °C -10 °C 34703.1 hPa Calm     89 % 0 mm
04:30 -9.1 °C -10.1 °C 34740.4 hPa Calm     89 % 0 mm
04:35 -9.1 °C -10.1 °C 34740.4 hPa Calm     89 % 0 mm
04:40 -9.1 °C -10.1 °C 34740.4 hPa Calm     89 % 0 mm
04:45 -9.2 °C -10.2 °C 34740.4 hPa West 5.1 km/h   89 % 0 mm
04:50 -9.3 °C -10.4 °C 34740.4 hPa West 6 km/h 6 km/h 88 % 0 mm
04:55 -9.2 °C -10.2 °C 34740.4 hPa West 3.1 km/h   89 % 0 mm
05:00 -9.3 °C -10.3 °C 34703.1 hPa Calm     89 % 0 mm
05:05 -9.3 °C -10.2 °C 34703.1 hPa Calm     90 % 0 mm
05:10 -9.3 °C -10.2 °C 34703.1 hPa Calm     90 % 0 mm
05:15 -9.3 °C -10.2 °C 34703.1 hPa Calm     90 % 0 mm
05:20 -9.2 °C -10.1 °C 34703.1 hPa Calm     90 % 0 mm
05:25 -9.2 °C -10.1 °C 34703.1 hPa West 3.7 km/h 3.7 km/h 90 % 0 mm
05:30 -9.1 °C -10.1 °C 34740.4 hPa West 3.1 km/h   90 % 0 mm
05:35 -9.2 °C -9.9 °C 34740.4 hPa Calm     91 % 0 mm
05:40 -9.2 °C -9.9 °C 34740.4 hPa Calm     91 % 0 mm
05:45 -9.1 °C -9.9 °C 34703.1 hPa Calm     91 % 0 mm
05:50 -9.1 °C -9.9 °C 34703.1 hPa Calm     91 % 0 mm
05:55 -9.1 °C -9.9 °C 34703.1 hPa Calm     91 % 0 mm
06:00 -9.2 °C -9.9 °C 34703.1 hPa Calm     91 % 0 mm
06:05 -9.2 °C -10.1 °C 34703.1 hPa Calm     91 % 0 mm
06:10 -9.2 °C -10.1 °C 34703.1 hPa Calm     91 % 0 mm
06:15 -9.2 °C -10.1 °C 34740.4 hPa NW 3.1 km/h   91 % 0 mm
06:20 -9.2 °C -10.1 °C 34740.4 hPa Calm     91 % 0 mm
06:22 -9.2 °C -10.1 °C 34740.4 hPa Calm     91 % 0 mm
06:27 -9.3 °C -10.2 °C 34703.1 hPa Calm     91 % 0 mm
06:32 -9.4 °C -10.2 °C 34703.1 hPa West 6 km/h 6 km/h 91 % 0 mm
06:37 -9.6 °C -10.4 °C 34703.1 hPa Calm     90 % 0 mm
06:42 -9.5 °C -10.4 °C 34740.4 hPa Calm     90 % 0 mm
06:47 -9.5 °C -10.3 °C 34740.4 hPa Calm     91 % 0 mm
06:52 -9.5 °C -10.3 °C 34740.4 hPa West 6 km/h 6 km/h 91 % 0 mm
06:57 -9.5 °C -10.3 °C 34740.4 hPa West 3.1 km/h 3.1 km/h 91 % 0 mm
07:02 -9.4 °C -10.2 °C 34740.4 hPa Calm     91 % 0 mm
07:07 -9.4 °C -10.2 °C 34740.4 hPa Calm     92 % 0 mm
07:12 -9.4 °C -10.2 °C 34740.4 hPa SW 3.1 km/h   92 % 0 mm
07:17 -9.6 °C -10.3 °C 34740.4 hPa Calm     92 % 0 mm
07:22 -9.6 °C -10.4 °C 34740.4 hPa Calm     91 % 0 mm
07:27 -9.6 °C -10.4 °C 34740.4 hPa Calm     91 % 0 mm
07:32 -9.7 °C -10.4 °C 34740.4 hPa Calm     91 % 0 mm
07:37 -9.7 °C -10.4 °C 34740.4 hPa Calm     91 % 0 mm
07:42 -9.7 °C -10.4 °C 34740.4 hPa Calm     91 % 0 mm
07:47 -9.7 °C -10.5 °C 34740.4 hPa Calm     91 % 0 mm
07:52 -9.7 °C -10.5 °C 34740.4 hPa Calm     91 % 0 mm
07:57 -9.7 °C -10.4 °C 34740.4 hPa Calm     91 % 0 mm
08:02 -9.6 °C -10.3 °C 34740.4 hPa Calm     92 % 0 mm
08:07 -9.6 °C -10.3 °C 34740.4 hPa Calm     92 % 0 mm
08:12 -9.6 °C -10.3 °C 34740.4 hPa Calm     92 % 0 mm
08:17 -9.6 °C -10.3 °C 34740.4 hPa Calm     92 % 0 mm
08:22 -9.6 °C -10.3 °C 34740.4 hPa Calm     92 % 0 mm
08:27 -9.6 °C -10.2 °C 34774.2 hPa Calm     93 % 0 mm
08:32 -9.5 °C -10.1 °C 34774.2 hPa Calm     93 % 0 mm
08:37 -9.5 °C -10.1 °C 34774.2 hPa Calm     93 % 0 mm
08:42 -9.4 °C -10.1 °C 34774.2 hPa Calm     93 % 0 mm
08:47 -9.4 °C -10.1 °C 34774.2 hPa Calm     93 % 0 mm
08:52 -9.3 °C -9.9 °C 34774.2 hPa Calm     94 % 0 mm
08:57 -9.3 °C -9.9 °C 34774.2 hPa Calm     93 % 0 mm
09:02 -9.3 °C -9.9 °C 34774.2 hPa Calm     93 % 0 mm
09:07 -9.2 °C -9.8 °C 34774.2 hPa Calm     93 % 0 mm
09:12 -9 °C -9.6 °C 34774.2 hPa Calm     94 % 0 mm
09:17 -8.9 °C -9.4 °C 34774.2 hPa Calm     94 % 0 mm
09:22 -8.9 °C -9.4 °C 34774.2 hPa SW 3.1 km/h   94 % 0 mm
09:27 -9 °C -9.6 °C 34774.2 hPa SW 6 km/h 6 km/h 93 % 0 mm
09:32 -8.9 °C -9.6 °C 34774.2 hPa Calm     93 % 0 mm
09:37 -8.9 °C -9.7 °C 34774.2 hPa SSW 4.2 km/h   92 % 0 mm
09:42 -8.8 °C -9.5 °C 34808.1 hPa SSE 3.1 km/h 3.1 km/h 93 % 0 mm
09:47 -8.8 °C -9.5 °C 34808.1 hPa SW 3.1 km/h   92 % 0 mm
09:52 -8.4 °C -9.1 °C 34808.1 hPa South 6 km/h 6 km/h 93 % 0 mm
09:57 -8.3 °C -9.1 °C 34808.1 hPa SW 6.3 km/h   91 % 0 mm
10:02 -8.3 °C -9.3 °C 34808.1 hPa SW 6 km/h   90 % 0 mm
10:07 -7.9 °C -8.7 °C 34808.1 hPa Calm     91 % 0 mm
10:12 -7.8 °C -8.8 °C 34808.1 hPa NNE 3.7 km/h   89 % 0 mm
10:17 -7.7 °C -8.9 °C 34808.1 hPa ENE 6.3 km/h 6.3 km/h 87 % 0 mm
10:22 -7.6 °C -8.9 °C 34808.1 hPa NNE 8 km/h 8 km/h 86 % 0 mm
10:27 -7.3 °C -8.7 °C 34808.1 hPa Calm     85 % 0 mm
10:29 -7.1 °C -8.6 °C 34808.1 hPa East 4.2 km/h 4.2 km/h 85 % 0 mm
10:34 -6.8 °C -8.5 °C 34808.1 hPa NNE 3.1 km/h   83 % 0 mm
10:39 -6.7 °C -8.5 °C 34808.1 hPa NNE 3.1 km/h   82 % 0 mm
10:44 -6.6 °C -8.4 °C 34808.1 hPa ENE 6 km/h 6 km/h 81 % 0 mm
10:49 -6.6 °C -8.6 °C 34808.1 hPa NNE 6 km/h 6 km/h 80 % 0 mm
10:54 -6.7 °C -9.1 °C 34808.1 hPa NNE 9 km/h 9 km/h 77 % 0 mm
10:59 -6.7 °C -8.8 °C 34808.1 hPa NE 6 km/h 6 km/h 78 % 0 mm
11:04 -6.4 °C -8.7 °C 34808.1 hPa NNE 6.8 km/h 6.8 km/h 77 % 0 mm
11:09 -6.2 °C -8.6 °C 34808.1 hPa NNE 11.9 km/h 11.9 km/h 77 % 0 mm
11:14 -6.1 °C -8.7 °C 34808.1 hPa ENE 6 km/h 6.8 km/h 75 % 0 mm
11:19 -6 °C -8.7 °C 34808.1 hPa ENE 6.8 km/h 6.8 km/h 74 % 0 mm
11:24 -6.1 °C -8.9 °C 34808.1 hPa NNE 9 km/h 9 km/h 73 % 0 mm
11:29 -5.9 °C -8.6 °C 34808.1 hPa NE 6.3 km/h 6.3 km/h 74 % 0 mm
11:34 -5.7 °C -8.4 °C 34808.1 hPa SW 9 km/h 9 km/h 74 % 0 mm
11:39 -5.6 °C -8.4 °C 34808.1 hPa NNE 11.9 km/h 11.9 km/h 73 % 0 mm
11:44 -5.8 °C -8.8 °C 34808.1 hPa NE 11.9 km/h 11.9 km/h 72 % 0 mm
11:49 -5.8 °C -8.7 °C 34808.1 hPa ENE 6 km/h 6 km/h 72 % 0 mm
11:54 -5.3 °C -8.3 °C 34808.1 hPa SSE 6 km/h 6 km/h 71 % 0 mm
11:59 -5.4 °C -8.6 °C 34808.1 hPa WNW 6 km/h 6 km/h 70 % 0 mm
12:04 -5.6 °C -8.9 °C 34808.1 hPa ESE 15 km/h 15 km/h 69 % 0 mm
12:09 -5.4 °C -8.8 °C 34808.1 hPa ENE 9 km/h 9 km/h 69 % 0 mm
12:14 -5.2 °C -8.8 °C 34774.2 hPa SSE 9 km/h 9 km/h 67 % 0 mm
12:19 -5.2 °C -8.8 °C 34774.2 hPa ESE 11.9 km/h 11.9 km/h 67 % 0 mm
12:24 -5.1 °C -8.7 °C 34774.2 hPa South 9 km/h 9 km/h 67 % 0 mm
12:29 -4.9 °C -8.9 °C 34808.1 hPa SSE 15 km/h 15 km/h 64 % 0 mm
12:34 -5.1 °C -8.9 °C 34808.1 hPa NE 9 km/h 9 km/h 65 % 0 mm
12:39 -4.9 °C -8.9 °C 34808.1 hPa ESE 6 km/h 6 km/h 64 % 0 mm
12:44 -4.7 °C -8.8 °C 34774.2 hPa ESE 9 km/h 9 km/h 63 % 0 mm
12:49 -5 °C -9.3 °C 34774.2 hPa ENE 11.9 km/h 11.9 km/h 62 % 0 mm
12:54 -5.1 °C -9.1 °C 34774.2 hPa ENE 6 km/h 6 km/h 64 % 0 mm
12:59 -4.7 °C -8.8 °C 34774.2 hPa SSE 9 km/h 9 km/h 63 % 0 mm
13:04 -4.9 °C -9.1 °C 34774.2 hPa East 9 km/h 9 km/h 63 % 0 mm
13:09 -5.1 °C -9.2 °C 34774.2 hPa ESE 9 km/h 9 km/h 63 % 0 mm
13:14 -5 °C -9.1 °C 34774.2 hPa Calm     63 % 0 mm
13:19 -4.9 °C -9.1 °C 34774.2 hPa ESE 7.6 km/h   63 % 0 mm
13:24 -4.9 °C -9.2 °C 34774.2 hPa South 9 km/h 9 km/h 62 % 0 mm
13:29 -5.1 °C -9.2 °C 34774.2 hPa South 9 km/h 9 km/h 63 % 0 mm
13:34 -5.1 °C -9.1 °C 34774.2 hPa ENE 3.1 km/h 3.7 km/h 64 % 0 mm
13:39 -5.1 °C -9.4 °C 34774.2 hPa SSE 6 km/h 6 km/h 62 % 0 mm
13:44 -5 °C -9.3 °C 34774.2 hPa East 9.8 km/h 9.8 km/h 62 % 0 mm
13:49 -5.1 °C -9.3 °C 34774.2 hPa ESE 9 km/h 9 km/h 62 % 0 mm
13:54 -4.9 °C -9.2 °C 34774.2 hPa ESE 8 km/h 8 km/h 62 % 0 mm
13:59 -4.4 °C -8.7 °C 34740.4 hPa WSW 11.9 km/h 11.9 km/h 62 % 0 mm
14:04 -4.4 °C -9.2 °C 34740.4 hPa East 11.9 km/h 11.9 km/h 59 % 0 mm
14:09 -4.6 °C -9.1 °C 34740.4 hPa East 7.6 km/h 7.6 km/h 61 % 0 mm
14:14 -4.5 °C -9.1 °C 34740.4 hPa ESE 9.3 km/h 9.3 km/h 60 % 0 mm
14:19 -4.4 °C -9.1 °C 34740.4 hPa SW 4.2 km/h   59 % 0 mm
14:24 -4.4 °C -9.1 °C 34740.4 hPa SSW 11.9 km/h 11.9 km/h 59 % 0 mm
14:29 -4.2 °C -9.2 °C 34740.4 hPa South 11.9 km/h 11.9 km/h 57 % 0 mm
14:34 -4.1 °C -9.1 °C 34740.4 hPa West 8 km/h 8 km/h 57 % 0 mm
14:39 -4.2 °C -9.3 °C 34740.4 hPa ESE 11.6 km/h 11.6 km/h 57 % 0 mm
14:44 -4.3 °C -9.3 °C 34740.4 hPa ESE 12.7 km/h 12.7 km/h 57 % 0 mm
14:49 -4.4 °C -9.6 °C 34740.4 hPa WSW 11.9 km/h 11.9 km/h 56 % 0 mm
14:54 -4.4 °C -9.5 °C 34740.4 hPa SE 9 km/h 9 km/h 57 % 0 mm
14:59 -4.3 °C -9.3 °C 34740.4 hPa South 9 km/h 9 km/h 57 % 0 mm
15:04 -3.9 °C -8.9 °C 34740.4 hPa West 9 km/h 9 km/h 57 % 0 mm
15:09 -3.8 °C -9.2 °C 34740.4 hPa SE 11.9 km/h 11.9 km/h 55 % 0 mm
15:14 -3.9 °C -9.3 °C 34740.4 hPa SE 12.7 km/h 12.7 km/h 55 % 0 mm
15:19 -4.1 °C -9.5 °C 34740.4 hPa ESE 18.3 km/h 18.3 km/h 55 % 0 mm
15:24 -4.3 °C -9.5 °C 34740.4 hPa SE 17.4 km/h 17.4 km/h 56 % 0 mm
15:29 -4.3 °C -9.5 °C 34703.1 hPa WSW 9 km/h 9 km/h 56 % 0 mm
15:34 -4.3 °C -9.5 °C 34703.1 hPa SE 17.9 km/h 17.9 km/h 56 % 0 mm
15:39 -4.4 °C -9.7 °C 34703.1 hPa SE 22 km/h 22 km/h 55 % 0 mm
15:44 -4.5 °C -9.7 °C 34703.1 hPa East 17.9 km/h 17.9 km/h 56 % 0 mm
15:49 -4.5 °C -9.7 °C 34703.1 hPa ESE 20.9 km/h 20.9 km/h 56 % 0 mm
15:54 -4.6 °C -9.7 °C 34703.1 hPa East 23.8 km/h 23.8 km/h 56 % 0 mm
15:59 -4.7 °C -9.8 °C 34703.1 hPa East 20.9 km/h 20.9 km/h 56 % 0 mm
16:04 -4.7 °C -9.7 °C 34703.1 hPa SE 19.6 km/h 19.6 km/h 57 % 0 mm
16:09 -4.8 °C -9.8 °C 34703.1 hPa East 11.9 km/h 11.9 km/h 57 % 0 mm
16:14 -4.9 °C -9.9 °C 34669.3 hPa SE 23.8 km/h 23.8 km/h 57 % 0 mm
16:19 -4.9 °C -9.9 °C 34669.3 hPa ESE 17.9 km/h 17.9 km/h 57 % 0 mm
16:24 -5 °C -9.8 °C 34669.3 hPa ESE 15 km/h 15 km/h 58 % 0 mm
16:29 -5 °C -9.8 °C 34703.1 hPa SE 15 km/h 15 km/h 58 % 0 mm
16:34 -5.1 °C -9.9 °C 34703.1 hPa ESE 17.9 km/h 17.9 km/h 58 % 0 mm
16:39 -5.2 °C -10 °C 34703.1 hPa East 20.9 km/h 20.9 km/h 58 % 0 mm
16:44 -5.2 °C -9.8 °C 34669.3 hPa ENE 20.9 km/h 20.9 km/h 59 % 0 mm
16:49 -5.2 °C -9.8 °C 34669.3 hPa SE 17.9 km/h 17.9 km/h 59 % 0 mm
16:54 -5.2 °C -9.8 °C 34669.3 hPa ESE 18.3 km/h 18.3 km/h 59 % 0 mm
16:59 -5.1 °C -9.8 °C 34669.3 hPa East 17.9 km/h 17.9 km/h 59 % 0 mm
17:04 -5 °C -9.7 °C 34669.3 hPa ESE 17.9 km/h 17.9 km/h 59 % 0 mm
17:09 -5.1 °C -9.8 °C 34669.3 hPa East 20.9 km/h 20.9 km/h 59 % 0 mm
17:14 -5.1 °C -9.9 °C 34669.3 hPa SSE 23.8 km/h 23.8 km/h 58 % 0 mm
17:19 -5.2 °C -10 °C 34669.3 hPa ESE 17.9 km/h 17.9 km/h 58 % 0 mm
17:24 -5.1 °C -9.9 °C 34669.3 hPa SSE 20.9 km/h 20.9 km/h 58 % 0 mm
17:29 -5.1 °C -9.9 °C 34669.3 hPa ENE 18.3 km/h 18.3 km/h 58 % 0 mm
17:34 -5.2 °C -10 °C 34669.3 hPa SE 20.9 km/h 20.9 km/h 58 % 0 mm
17:39 -5.2 °C -10.1 °C 34669.3 hPa SE 17.9 km/h 17.9 km/h 58 % 0 mm
17:44 -5.3 °C -10.1 °C 34703.1 hPa ESE 19.2 km/h 19.2 km/h 58 % 0 mm
17:49 -5.3 °C -10.1 °C 34703.1 hPa East 20.9 km/h 20.9 km/h 58 % 0 mm
17:54 -5.3 °C -10.1 °C 34703.1 hPa ESE 15 km/h 15 km/h 58 % 0 mm
17:59 -5.2 °C -10.1 °C 34669.3 hPa ESE 9 km/h 9 km/h 58 % 0 mm
18:04 -5.1 °C -9.8 °C 34669.3 hPa West 9.8 km/h 9.8 km/h 59 % 0 mm
18:09 -5.1 °C -9.9 °C 34669.3 hPa SSE 11.9 km/h 11.9 km/h 58 % 0 mm
18:14 -5.2 °C -10.1 °C 34669.3 hPa South 9 km/h 9 km/h 58 % 0 mm
18:19 -5.3 °C -10.1 °C 34669.3 hPa South 11.9 km/h 11.9 km/h 58 % 0 mm
18:24 -5.3 °C -10.2 °C 34669.3 hPa East 6.3 km/h 6.3 km/h 58 % 0 mm
18:29 -5.4 °C -10.2 °C 34669.3 hPa ESE 16.6 km/h 16.6 km/h 58 % 0 mm
18:34 -5.5 °C -10.3 °C 34669.3 hPa SSE 11.9 km/h 11.9 km/h 58 % 0 mm
18:39 -5.6 °C -10.3 °C 34669.3 hPa ESE 15 km/h 15 km/h 59 % 0 mm
18:44 -5.7 °C -10.2 °C 34703.1 hPa ESE 6 km/h 6 km/h 60 % 0 mm
18:49 -5.8 °C -10.3 °C 34703.1 hPa SSE 11.9 km/h 11.9 km/h 60 % 0 mm
18:54 -5.9 °C -10.4 °C 34703.1 hPa ESE 12.2 km/h 12.2 km/h 60 % 0 mm
18:59 -6 °C -10.3 °C 34703.1 hPa SE 9.8 km/h 9.8 km/h 61 % 0 mm
19:04 -6.1 °C -10.4 °C 34703.1 hPa South 9 km/h   61 % 0 mm
19:09 -6.1 °C -10.4 °C 34703.1 hPa Calm     61 % 0 mm
19:14 -6.2 °C -10.4 °C 34703.1 hPa Calm     62 % 0 mm
19:19 -6.3 °C -10.4 °C 34703.1 hPa SSE 6 km/h   62 % 0 mm
19:24 -6.4 °C -10.4 °C 34703.1 hPa SSE 6 km/h 6 km/h 63 % 0 mm
19:29 -6.4 °C -10.5 °C 34740.4 hPa Calm     63 % 0 mm
19:34 -6.5 °C -10.6 °C 34740.4 hPa SW 3.1 km/h 3.1 km/h 63 % 0 mm
19:39 -6.6 °C -10.4 °C 34740.4 hPa Calm     64 % 0 mm
19:44 -6.7 °C -10.6 °C 34740.4 hPa Calm     64 % 0 mm
19:49 -6.7 °C -10.5 °C 34740.4 hPa SW 3.1 km/h 3.1 km/h 65 % 0 mm
19:54 -6.8 °C -10.5 °C 34740.4 hPa SW 3.1 km/h   65 % 0 mm
19:59 -6.8 °C -10.4 °C 34740.4 hPa WSW 6.3 km/h 6.3 km/h 66 % 0 mm
20:04 -6.9 °C -10.6 °C 34740.4 hPa WSW 4.2 km/h 4.2 km/h 66 % 0 mm
20:05 -8.5 °C -10.7 °C 34740.4 hPa Calm     77 % 0 mm
20:09 -7 °C -10.6 °C 34740.4 hPa Calm   2.3 km/h 66 % 0 mm
20:14 -7.1 °C -10.7 °C 34740.4 hPa SW 3.1 km/h   66 % 0 mm
20:15 -8.6 °C -10.7 °C 34703.1 hPa Calm     78 % 0 mm
20:19 -7.1 °C -10.6 °C 34740.4 hPa Calm     67 % 0 mm
20:24 -7.1 °C -10.6 °C 34740.4 hPa Calm     67 % 0 mm
20:25 -8.7 °C -10.8 °C 34703.1 hPa Calm     78 % 0 mm
20:29 -7.2 °C -10.7 °C 34703.1 hPa Calm     67 % 0 mm
20:34 -7.2 °C -10.6 °C 34703.1 hPa Calm     68 % 0 mm
20:35 -8.7 °C -10.7 °C 34740.4 hPa Calm     79 % 0 mm
20:39 -7.3 °C -10.5 °C 34703.1 hPa Calm     69 % 0 mm
20:44 -7.3 °C -10.6 °C 34740.4 hPa Calm     69 % 0 mm
20:45 -8.8 °C -10.8 °C 34740.4 hPa Calm     79 % 0 mm
20:49 -7.3 °C -10.6 °C 34740.4 hPa Calm     69 % 0 mm
20:54 -7.3 °C -10.6 °C 34740.4 hPa Calm     69 % 0 mm
20:55 -8.8 °C -10.9 °C 34740.4 hPa Calm     79 % 0 mm
20:59 -7.3 °C -10.4 °C 34703.1 hPa Calm     70 % 0 mm
21:04 -7.3 °C -10.4 °C 34703.1 hPa WSW 3.1 km/h   70 % 0 mm
21:05 -8.9 °C -10.9 °C 34740.4 hPa Calm     79 % 0 mm
21:09 -7.3 °C -10.4 °C 34703.1 hPa WSW 3.7 km/h   70 % 0 mm
21:14 -7.3 °C -10.4 °C 34703.1 hPa Calm     70 % 0 mm
21:15 -8.9 °C -10.9 °C 34703.1 hPa Calm     80 % 0 mm
21:19 -7.3 °C -10.4 °C 34703.1 hPa Calm     70 % 0 mm
21:24 -7.3 °C -10.4 °C 34703.1 hPa Calm     70 % 0 mm
21:25 -9.1 °C -10.9 °C 34703.1 hPa Calm     80 % 0 mm
21:29 -7.3 °C -10.4 °C 34740.4 hPa Calm     70 % 0 mm
21:34 -7.3 °C -10.3 °C 34740.4 hPa Calm     71 % 0 mm
21:35 -9.1 °C -11 °C 34703.1 hPa Calm   5.1 km/h 80 % 0 mm
21:39 -7.3 °C -10.3 °C 34740.4 hPa WSW 3.1 km/h   71 % 0 mm
21:44 -7.3 °C -10.3 °C 34703.1 hPa Calm     71 % 0 mm
21:45 -9.1 °C -10.9 °C 34703.1 hPa Calm     81 % 0 mm
21:49 -7.3 °C -10.3 °C 34703.1 hPa Calm     71 % 0 mm
21:54 -7.3 °C -10.3 °C 34703.1 hPa Calm     71 % 0 mm
21:55 -9.1 °C -11 °C 34703.1 hPa East 2.6 km/h 2.6 km/h 80 % 0 mm
21:59 -7.3 °C -10.3 °C 34740.4 hPa Calm     71 % 0 mm
22:00 -7.3 °C -10.3 °C 34740.4 hPa Calm     71 % 0 mm
22:05 -7.3 °C -10.3 °C 34740.4 hPa Calm     71 % 0 mm
22:10 -7.3 °C -10.3 °C 34740.4 hPa Calm     71 % 0 mm
22:15 -7.3 °C -10.3 °C 34740.4 hPa Calm     71 % 0 mm
22:20 -7.3 °C -10.3 °C 34740.4 hPa WSW 6 km/h 6 km/h 71 % 0 mm
22:25 -7.3 °C -10.3 °C 34740.4 hPa Calm     71 % 0 mm
22:30 -7.3 °C -10.3 °C 34740.4 hPa Calm     71 % 0 mm
22:35 -7.3 °C -10.3 °C 34740.4 hPa Calm     71 % 0 mm
22:40 -7.3 °C -10.3 °C 34740.4 hPa WSW 3.1 km/h 3.1 km/h 71 % 0 mm
22:45 -7.4 °C -10.2 °C 34774.2 hPa WSW 3.1 km/h   72 % 0 mm
22:50 -7.4 °C -10.3 °C 34774.2 hPa Calm   2.6 km/h 72 % 0 mm
22:55 -7.5 °C -10.4 °C 34774.2 hPa Calm     72 % 0 mm
23:00 -7.6 °C -10.4 °C 34740.4 hPa Calm     72 % 0 mm
23:05 -7.6 °C -10.4 °C 34740.4 hPa Calm     72 % 0 mm
23:10 -7.7 °C -10.5 °C 34740.4 hPa WSW 5.1 km/h   72 % 0 mm
23:15 -7.8 °C -10.7 °C 34740.4 hPa WSW 5.1 km/h 5.1 km/h 72 % 0 mm
23:20 -7.9 °C -10.7 °C 34740.4 hPa WSW 3.7 km/h 3.7 km/h 73 % 0 mm
23:25 -8 °C -10.7 °C 34740.4 hPa WSW 2.6 km/h 5.1 km/h 73 % 0 mm
23:30 -8 °C -10.7 °C 34740.4 hPa Calm   5.1 km/h 73 % 0 mm
23:35 -8 °C -10.6 °C 34740.4 hPa Calm     74 % 0 mm
23:40 -8 °C -10.6 °C 34740.4 hPa Calm     74 % 0 mm
23:45 -8.1 °C -10.7 °C 34740.4 hPa Calm     74 % 0 mm
23:50 -8.2 °C -10.8 °C 34740.4 hPa WSW 3.1 km/h 3.1 km/h 74 % 0 mm
23:55 -8.2 °C -10.7 °C 34740.4 hPa Calm     75 % 0 mm
Meteo Sesrovires
Elogis d' Weather Underground - 2 mb

Guio original per  Jim McMurry - jmcmurry@mwt.net Adaptat per a la plantilla per  Wim van der Kuil - Leuven-Template.eu

Trobareu la nostra informacio del temps tambe a:

Weather Underground

AWEKAS